createdAt,value
2019-04-11T00:01:56.735Z,0.90
2019-04-11T00:04:26.639Z,0.90
2019-04-11T00:06:56.609Z,0.90
2019-04-11T00:09:27.015Z,0.90
2019-04-11T00:11:59.961Z,0.90
2019-04-11T00:14:29.996Z,0.80
2019-04-11T00:16:59.871Z,0.80
2019-04-11T00:19:29.838Z,0.80
2019-04-11T00:21:59.849Z,0.80
2019-04-11T00:24:29.741Z,0.80
2019-04-11T00:27:00.351Z,0.80
2019-04-11T00:29:30.370Z,0.80
2019-04-11T00:32:01.142Z,0.80
2019-04-11T00:34:31.246Z,0.70
2019-04-11T00:37:01.315Z,0.70
2019-04-11T00:39:31.927Z,0.70
2019-04-11T00:42:02.086Z,0.70
2019-04-11T00:44:32.760Z,0.70
2019-04-11T00:47:02.813Z,0.80
2019-04-11T00:49:32.696Z,0.70
2019-04-11T00:52:02.737Z,0.70
2019-04-11T00:54:33.164Z,0.70
2019-04-11T00:57:04.330Z,0.70
2019-04-11T00:59:34.471Z,0.70
2019-04-11T01:02:05.252Z,0.70
2019-04-11T01:04:35.231Z,0.70
2019-04-11T01:07:05.120Z,0.70
2019-04-11T01:09:35.023Z,0.60
2019-04-11T01:12:04.940Z,0.60
2019-04-11T01:14:37.123Z,0.70
2019-04-11T01:17:07.772Z,0.60
2019-04-11T01:19:38.621Z,0.60
2019-04-11T01:22:09.877Z,0.60
2019-04-11T01:24:39.956Z,0.60
2019-04-11T01:27:10.128Z,0.60
2019-04-11T01:29:40.123Z,0.60
2019-04-11T01:32:11.609Z,0.60
2019-04-11T01:34:42.508Z,0.60
2019-04-11T01:37:12.751Z,0.60
2019-04-11T01:39:51.411Z,0.60
2019-04-11T01:42:22.798Z,0.50
2019-04-11T01:44:52.773Z,0.50
2019-04-11T01:47:40.309Z,0.50
2019-04-11T01:50:12.558Z,0.50
2019-04-11T01:52:42.704Z,0.50
2019-04-11T01:55:14.388Z,0.50
2019-04-11T01:57:44.667Z,0.50
2019-04-11T02:00:17.761Z,0.50
2019-04-11T02:02:49.355Z,0.40
2019-04-11T02:05:25.074Z,0.40
2019-04-11T02:07:55.320Z,0.40
2019-04-11T02:10:26.482Z,0.40
2019-04-11T02:12:56.580Z,0.40
2019-04-11T02:15:28.150Z,0.40
2019-04-11T02:17:59.224Z,0.40
2019-04-11T02:20:29.326Z,0.40
2019-04-11T02:23:04.611Z,0.40
2019-04-11T02:25:36.660Z,0.40
2019-04-11T02:28:08.562Z,0.50
2019-04-11T02:30:41.768Z,0.50
2019-04-11T02:33:13.666Z,0.50
2019-04-11T02:35:46.069Z,0.40
2019-04-11T02:38:16.542Z,0.40
2019-04-11T02:40:49.086Z,0.40
2019-04-11T02:43:18.350Z,0.40
2019-04-11T02:46:01.726Z,0.30
2019-04-11T02:48:21.344Z,0.40
2019-04-11T02:50:51.554Z,0.30
2019-04-11T02:53:23.830Z,0.40
2019-04-11T02:55:54.275Z,0.40
2019-04-11T02:58:25.432Z,0.40
2019-04-11T03:01:00.302Z,0.40
2019-04-11T03:03:29.589Z,0.30
2019-04-11T03:06:00.384Z,0.30
2019-04-11T03:08:34.206Z,0.30
2019-04-11T03:11:02.920Z,0.30
2019-04-11T03:13:38.272Z,0.30
2019-04-11T03:16:23.680Z,0.20
2019-04-11T03:18:54.824Z,0.30
2019-04-11T03:21:14.458Z,0.20
2019-04-11T03:23:44.024Z,0.10
2019-04-11T03:26:14.373Z,0.10
2019-04-11T03:28:48.978Z,0.10
2019-04-11T03:31:59.577Z,0.00
2019-04-11T03:34:38.969Z,0.00
2019-04-11T03:39:15.426Z,0.00
2019-04-11T03:41:40.863Z,0.00
2019-04-11T03:44:04.373Z,0.00
2019-04-11T03:46:43.326Z,-0.10
2019-04-11T03:49:06.195Z,0.00
2019-04-11T03:51:31.270Z,-0.10
2019-04-11T03:54:01.572Z,-0.20
2019-04-11T03:56:33.113Z,-0.20
2019-04-11T03:59:04.184Z,-0.20
2019-04-11T04:01:35.546Z,-0.30
2019-04-11T04:04:06.602Z,-0.30
2019-04-11T04:06:37.376Z,-0.30
2019-04-11T04:09:08.988Z,-0.30
2019-04-11T04:11:42.692Z,-0.20
2019-04-11T04:14:32.460Z,-0.10
2019-04-11T04:17:23.646Z,-0.20
2019-04-11T04:19:56.611Z,-0.20
2019-04-11T04:22:29.392Z,-0.10
2019-04-11T04:25:01.086Z,-0.10
2019-04-11T04:27:32.678Z,-0.10
2019-04-11T04:30:05.297Z,-0.20
2019-04-11T04:32:36.058Z,-0.20
2019-04-11T04:35:10.740Z,-0.20
2019-04-11T04:37:40.999Z,-0.30
2019-04-11T04:40:28.031Z,-0.20
2019-04-11T04:42:47.898Z,-0.20
2019-04-11T04:45:16.372Z,-0.10
2019-04-11T04:47:54.336Z,-0.30
2019-04-11T04:50:20.062Z,-0.10
2019-04-11T04:52:51.599Z,-0.20
2019-04-11T04:55:23.390Z,-0.30
2019-04-11T04:57:55.241Z,-0.20
2019-04-11T05:00:26.009Z,-0.30
2019-04-11T05:02:57.527Z,-0.40
2019-04-11T05:05:29.240Z,-0.40
2019-04-11T05:08:00.633Z,-0.50
2019-04-11T05:10:32.579Z,-0.50
2019-04-11T05:13:05.686Z,-0.50
2019-04-11T05:15:36.582Z,-0.50
2019-04-11T05:18:08.700Z,-0.50
2019-04-11T05:20:38.612Z,-0.50
2019-04-11T05:23:08.658Z,-0.30
2019-04-11T05:25:39.711Z,-0.40
2019-04-11T05:28:09.943Z,-0.40
2019-04-11T05:30:40.006Z,-0.50
2019-04-11T05:33:09.891Z,-0.50
2019-04-11T05:35:39.817Z,-0.40
2019-04-11T05:38:10.866Z,-0.40
2019-04-11T05:40:41.874Z,-0.40
2019-04-11T05:43:12.030Z,-0.40
2019-04-11T05:45:42.270Z,-0.40
2019-04-11T05:48:31.484Z,-0.40
2019-04-11T05:51:01.694Z,-0.40
2019-04-11T05:53:33.560Z,-0.40
2019-04-11T05:56:07.165Z,-0.40
2019-04-11T05:58:42.217Z,-0.40
2019-04-11T06:01:15.065Z,-0.40
2019-04-11T06:03:46.379Z,-0.40
2019-04-11T06:06:37.746Z,-0.40
2019-04-11T06:09:10.448Z,-0.30
2019-04-11T06:11:52.363Z,-0.40
2019-04-11T06:14:21.189Z,-0.30
2019-04-11T06:16:55.644Z,-0.30
2019-04-11T06:19:25.911Z,-0.40
2019-04-11T06:22:00.340Z,-0.40
2019-04-11T06:24:38.850Z,-0.30
2019-04-11T06:27:11.303Z,-0.40
2019-04-11T06:30:01.495Z,-0.40
2019-04-11T06:32:48.908Z,-0.40
2019-04-11T06:35:24.089Z,-0.40
2019-04-11T06:38:05.933Z,-0.30
2019-04-11T06:40:37.701Z,-0.30
2019-04-11T06:43:16.929Z,-0.30
2019-04-11T06:46:07.021Z,-0.40
2019-04-11T06:48:39.965Z,-0.40
2019-04-11T06:51:11.644Z,-0.30
2019-04-11T06:53:44.099Z,-0.30
2019-04-11T06:56:16.734Z,-0.30
2019-04-11T06:58:52.011Z,-0.40
2019-04-11T07:01:22.667Z,-0.30
2019-04-11T07:03:57.508Z,-0.20
2019-04-11T07:06:29.396Z,-0.30
2019-04-11T07:09:17.520Z,-0.30
2019-04-11T07:11:52.638Z,-0.30
2019-04-11T07:14:24.226Z,-0.30
2019-04-11T07:17:13.645Z,-0.40
2019-04-11T07:20:04.507Z,-0.40
2019-04-11T07:22:52.640Z,-0.30
2019-04-11T07:25:24.149Z,-0.30
2019-04-11T07:28:11.980Z,-0.30
2019-04-11T07:30:47.366Z,-0.40
2019-04-11T07:33:28.890Z,-0.40
2019-04-11T07:36:18.318Z,-0.40
2019-04-11T07:39:06.140Z,-0.40
2019-04-11T07:41:39.044Z,-0.40
2019-04-11T07:44:15.374Z,-0.40
2019-04-11T07:47:14.620Z,-0.40
2019-04-11T07:49:37.466Z,-0.40
2019-04-11T07:52:09.047Z,-0.30
2019-04-11T07:54:39.089Z,-0.30
2019-04-11T07:57:10.672Z,-0.30
2019-04-11T07:59:49.078Z,-0.40
2019-04-11T08:02:38.248Z,-0.40
2019-04-11T08:05:19.762Z,-0.40
2019-04-11T08:07:55.050Z,-0.40
2019-04-11T08:10:37.214Z,-0.30
2019-04-11T08:13:20.911Z,-0.40
2019-04-11T08:16:09.034Z,-0.40
2019-04-11T08:18:41.123Z,-0.40
2019-04-11T08:21:30.038Z,-0.40
2019-04-11T08:24:02.996Z,-0.30
2019-04-11T08:26:50.809Z,-0.30
2019-04-11T08:29:22.207Z,-0.40
2019-04-11T08:32:09.949Z,-0.40
2019-04-11T08:34:47.928Z,-0.40
2019-04-11T08:37:35.984Z,-0.30
2019-04-11T08:40:09.422Z,-0.30
2019-04-11T08:42:57.252Z,-0.30
2019-04-11T08:45:29.805Z,-0.30
2019-04-11T08:48:02.394Z,-0.30
2019-04-11T08:50:37.164Z,-0.30
2019-04-11T08:53:18.576Z,-0.30
2019-04-11T08:55:58.868Z,-0.30
2019-04-11T08:58:45.248Z,-0.30
2019-04-11T09:01:25.201Z,-0.30
2019-04-11T09:04:04.649Z,-0.30
2019-04-11T09:06:30.621Z,-0.30
2019-04-11T09:09:18.858Z,-0.30
2019-04-11T09:11:54.078Z,-0.30
2019-04-11T09:14:41.809Z,-0.30
2019-04-11T09:17:16.466Z,-0.30
2019-04-11T09:19:49.331Z,-0.30
2019-04-11T09:22:33.300Z,-0.30
2019-04-11T09:25:11.104Z,-0.20
2019-04-11T09:27:57.931Z,-0.20
2019-04-11T09:30:35.161Z,-0.10
2019-04-11T09:33:23.325Z,-0.10
2019-04-11T09:36:01.715Z,-0.10
2019-04-11T09:38:40.231Z,-0.10
2019-04-11T09:41:24.699Z,-0.20
2019-04-11T09:43:56.487Z,-0.10
2019-04-11T09:46:30.259Z,-0.10
2019-04-11T09:49:12.064Z,-0.10
2019-04-11T09:51:47.739Z,-0.10
2019-04-11T09:54:22.377Z,-0.10
2019-04-11T09:57:02.950Z,-0.10
2019-04-11T09:59:34.491Z,-0.10
2019-04-11T10:02:15.126Z,-0.10
2019-04-11T10:04:46.615Z,0.00
2019-04-11T10:07:18.104Z,0.00
2019-04-11T10:10:04.990Z,0.00
2019-04-11T10:12:52.582Z,-0.10
2019-04-11T10:15:24.127Z,0.00
2019-04-11T10:18:05.183Z,0.00
2019-04-11T10:20:37.048Z,-0.10
2019-04-11T10:23:08.546Z,0.00
2019-04-11T10:25:40.156Z,0.00
2019-04-11T10:28:11.762Z,0.00
2019-04-11T10:30:59.882Z,0.00
2019-04-11T10:33:35.187Z,0.00
2019-04-11T10:36:07.151Z,0.10
2019-04-11T10:38:38.555Z,0.10
2019-04-11T10:41:26.293Z,0.00
2019-04-11T10:43:57.157Z,0.00
2019-04-11T10:46:37.946Z,0.00
2019-04-11T10:49:09.505Z,0.00
2019-04-11T10:51:53.965Z,0.00
2019-04-11T10:54:24.456Z,0.00
2019-04-11T10:57:01.816Z,0.00
2019-04-11T10:59:35.998Z,0.00
2019-04-11T11:02:13.375Z,0.10
2019-04-11T11:04:45.131Z,0.10
2019-04-11T11:07:16.508Z,0.10
2019-04-11T11:09:47.932Z,0.10
2019-04-11T11:12:35.141Z,0.20
2019-04-11T11:15:07.880Z,0.20
2019-04-11T11:18:25.224Z,0.20
2019-04-11T11:20:43.012Z,0.20
2019-04-11T11:23:26.873Z,0.20
2019-04-11T11:26:04.854Z,0.20
2019-04-11T11:28:39.461Z,0.20
2019-04-11T11:31:11.926Z,0.30
2019-04-11T11:33:44.896Z,0.30
2019-04-11T11:36:19.491Z,0.30
2019-04-11T11:39:09.377Z,0.30
2019-04-11T11:41:56.827Z,0.30
2019-04-11T11:44:28.680Z,0.30
2019-04-11T11:47:17.443Z,0.30
2019-04-11T11:49:55.634Z,0.30
2019-04-11T11:52:37.566Z,0.40
2019-04-11T11:55:10.267Z,0.40
2019-04-11T11:57:42.690Z,0.40
2019-04-11T12:00:17.286Z,0.50
2019-04-11T12:02:51.384Z,0.50
2019-04-11T12:05:26.095Z,0.50
2019-04-11T12:07:56.462Z,0.40
2019-04-11T12:10:39.996Z,0.40
2019-04-11T12:13:14.399Z,0.40
2019-04-11T12:15:51.142Z,0.40
2019-04-11T12:18:46.670Z,0.40
2019-04-11T12:21:16.340Z,0.50
2019-04-11T12:24:00.826Z,0.60
2019-04-11T12:26:28.826Z,0.60
2019-04-11T12:29:15.730Z,0.60
2019-04-11T12:31:48.137Z,0.70
2019-04-11T12:34:36.568Z,0.60
2019-04-11T12:37:08.520Z,0.60
2019-04-11T12:39:56.575Z,0.60
2019-04-11T12:42:31.220Z,0.60
2019-04-11T12:45:15.109Z,0.70
2019-04-11T12:47:45.364Z,0.60
2019-04-11T12:50:36.085Z,0.70
2019-04-11T12:53:07.546Z,0.70
2019-04-11T12:55:55.540Z,0.70
2019-04-11T12:58:30.045Z,0.80
2019-04-11T13:01:18.024Z,0.70
2019-04-11T13:04:01.852Z,0.70
2019-04-11T13:06:50.651Z,0.80
2019-04-11T13:09:28.343Z,0.70
2019-04-11T13:11:59.833Z,0.70
2019-04-11T13:14:49.336Z,0.70
2019-04-11T13:17:35.807Z,0.70
2019-04-11T13:20:25.127Z,0.60
2019-04-11T13:23:13.039Z,0.60
2019-04-11T13:26:00.967Z,0.70
2019-04-11T13:28:32.460Z,0.60
2019-04-11T13:31:04.075Z,0.60
2019-04-11T13:33:33.958Z,0.60
2019-04-11T13:36:08.215Z,0.60
2019-04-11T13:38:38.650Z,0.60
2019-04-11T13:41:26.687Z,0.60
2019-04-11T13:43:57.182Z,0.60
2019-04-11T13:46:34.425Z,0.50
2019-04-11T13:49:06.039Z,0.50
2019-04-11T13:51:40.743Z,0.50
2019-04-11T13:54:28.481Z,0.50
2019-04-11T13:57:14.960Z,0.50
2019-04-11T14:00:02.659Z,0.50
2019-04-11T14:02:50.915Z,0.50
2019-04-11T14:05:19.124Z,0.50
2019-04-11T14:07:50.064Z,0.50
2019-04-11T14:10:21.344Z,0.50
2019-04-11T14:12:52.913Z,0.60
2019-04-11T14:15:29.395Z,0.50
2019-04-11T14:18:16.960Z,0.50
2019-04-11T14:20:48.435Z,0.50
2019-04-11T14:23:25.909Z,0.50
2019-04-11T14:26:06.247Z,0.50
2019-04-11T14:28:37.904Z,0.50
2019-04-11T14:31:21.806Z,0.50
2019-04-11T14:33:55.555Z,0.50
2019-04-11T14:36:43.265Z,0.50
2019-04-11T14:39:14.748Z,0.50
2019-04-11T14:42:02.630Z,0.50
2019-04-11T14:44:34.231Z,0.60
2019-04-11T14:47:06.856Z,0.60
2019-04-11T14:49:40.612Z,0.60
2019-04-11T14:52:10.607Z,0.60
2019-04-11T14:54:42.168Z,0.60
2019-04-11T14:57:22.812Z,0.60
2019-04-11T14:59:54.147Z,0.60
2019-04-11T15:02:32.087Z,0.50
2019-04-11T15:05:13.911Z,0.50
2019-04-11T15:07:46.127Z,0.50
2019-04-11T15:10:34.910Z,0.50
2019-04-11T15:13:07.410Z,0.60
2019-04-11T15:15:57.689Z,0.60
2019-04-11T15:18:27.588Z,0.50
2019-04-11T15:21:01.969Z,0.50
2019-04-11T15:23:33.411Z,0.50
2019-04-11T15:26:21.329Z,0.60
2019-04-11T15:28:58.738Z,0.60
2019-04-11T15:31:39.086Z,0.50
2019-04-11T15:34:03.308Z,0.50
2019-04-11T15:36:33.599Z,0.50
2019-04-11T15:39:08.491Z,0.50
2019-04-11T15:41:39.931Z,0.50
2019-04-11T15:44:14.556Z,0.50
2019-04-11T15:46:47.668Z,0.50
2019-04-11T15:49:31.411Z,0.40
2019-04-11T15:52:06.297Z,0.40
2019-04-11T15:54:48.435Z,0.40
2019-04-11T15:57:19.938Z,0.40
2019-04-11T16:00:07.623Z,0.40
2019-04-11T16:02:55.643Z,0.40
2019-04-11T16:05:43.419Z,0.40
2019-04-11T16:08:15.053Z,0.50
2019-04-11T16:10:52.304Z,0.40
2019-04-11T16:13:29.635Z,0.40
2019-04-11T16:16:06.817Z,0.30
2019-04-11T16:18:34.340Z,0.40
2019-04-11T16:21:18.097Z,0.40
2019-04-11T16:23:44.780Z,0.30
2019-04-11T16:26:17.667Z,0.30
2019-04-11T16:28:49.174Z,0.30
2019-04-11T16:31:19.054Z,0.30
2019-04-11T16:33:50.573Z,0.30
2019-04-11T16:36:22.039Z,0.30
2019-04-11T16:39:09.778Z,0.30
2019-04-11T16:41:57.670Z,0.30
2019-04-11T16:44:47.319Z,0.20
2019-04-11T16:47:26.006Z,0.20
2019-04-11T16:50:01.670Z,0.20
2019-04-11T16:52:32.341Z,0.20
2019-04-11T16:55:02.432Z,0.20
2019-04-11T16:57:34.107Z,0.20
2019-04-11T17:00:09.144Z,0.10
2019-04-11T17:02:39.222Z,0.10
2019-04-11T17:05:09.362Z,0.10
2019-04-11T17:07:56.148Z,0.10
2019-04-11T17:10:44.619Z,0.00
2019-04-11T17:13:14.893Z,0.00
2019-04-11T17:15:44.799Z,0.00
2019-04-11T17:18:14.715Z,0.00
2019-04-11T17:20:44.675Z,0.10
2019-04-11T17:23:17.236Z,0.00
2019-04-11T17:25:48.205Z,0.10
2019-04-11T17:28:17.765Z,0.00
2019-04-11T17:30:47.646Z,0.10
2019-04-11T17:33:17.548Z,0.00
2019-04-11T17:35:47.440Z,0.10
2019-04-11T17:38:17.342Z,0.00
2019-04-11T17:40:47.281Z,0.00
2019-04-11T17:43:17.251Z,0.10
2019-04-11T17:45:47.220Z,0.20
2019-04-11T17:48:17.124Z,0.20
2019-04-11T17:50:47.072Z,0.20
2019-04-11T17:53:16.982Z,0.20
2019-04-11T17:55:47.143Z,0.20
2019-04-11T17:58:18.275Z,0.20
2019-04-11T18:00:55.685Z,0.20
2019-04-11T18:03:25.774Z,0.20
2019-04-11T18:05:55.821Z,0.20
2019-04-11T18:08:25.743Z,0.10
2019-04-11T18:10:56.563Z,0.10
2019-04-11T18:13:30.508Z,0.10
2019-04-11T18:16:00.718Z,0.20
2019-04-11T18:18:30.171Z,0.20
2019-04-11T18:21:00.080Z,0.20
2019-04-11T18:23:30.131Z,0.10
2019-04-11T18:26:00.093Z,0.20
2019-04-11T18:28:30.393Z,0.30
2019-04-11T18:31:00.270Z,0.30
2019-04-11T18:33:31.791Z,0.30
2019-04-11T18:36:02.867Z,0.20
2019-04-11T18:38:32.983Z,0.20
2019-04-11T18:41:03.027Z,0.20
2019-04-11T18:43:33.077Z,0.20
2019-04-11T18:46:02.995Z,0.20
2019-04-11T18:48:32.883Z,0.20
2019-04-11T18:51:02.826Z,0.20
2019-04-11T18:53:34.210Z,0.10
2019-04-11T18:56:04.246Z,0.20
2019-04-11T18:58:35.100Z,0.20
2019-04-11T19:01:08.811Z,0.20
2019-04-11T19:03:41.176Z,0.20
2019-04-11T19:06:12.921Z,0.30
2019-04-11T19:08:43.087Z,0.20
2019-04-11T19:11:15.438Z,0.20
2019-04-11T19:13:46.761Z,0.20
2019-04-11T19:16:16.118Z,0.20
2019-04-11T19:18:47.805Z,0.20
2019-04-11T19:21:21.072Z,0.20
2019-04-11T19:23:51.171Z,0.20
2019-04-11T19:26:22.850Z,0.10
2019-04-11T19:28:54.849Z,0.10
2019-04-11T19:31:27.396Z,0.10
2019-04-11T19:33:55.822Z,0.10
2019-04-11T19:36:26.801Z,0.00
2019-04-11T19:38:57.012Z,0.00
2019-04-11T19:41:27.198Z,0.00
2019-04-11T19:43:57.074Z,0.10
2019-04-11T19:46:27.201Z,0.10
2019-04-11T19:48:59.484Z,0.10
2019-04-11T19:51:29.588Z,0.10
2019-04-11T19:54:02.959Z,0.10
2019-04-11T19:56:50.608Z,0.00
2019-04-11T19:59:21.511Z,0.00
2019-04-11T20:01:53.257Z,0.00
2019-04-11T20:04:24.006Z,0.00
2019-04-11T20:06:55.492Z,0.00
2019-04-11T20:09:25.438Z,0.00
2019-04-11T20:11:55.305Z,-0.10
2019-04-11T20:14:25.244Z,-0.10
2019-04-11T20:16:55.222Z,-0.10
2019-04-11T20:19:27.510Z,-0.10
2019-04-11T20:21:56.697Z,-0.10
2019-04-11T20:24:26.573Z,-0.10
2019-04-11T20:26:56.455Z,-0.10
2019-04-11T20:29:26.327Z,-0.10
2019-04-11T20:31:56.275Z,-0.20
2019-04-11T20:34:27.638Z,-0.10
2019-04-11T20:36:57.696Z,-0.20
2019-04-11T20:39:27.605Z,-0.10
2019-04-11T20:41:57.531Z,-0.20
2019-04-11T20:44:28.091Z,-0.20
2019-04-11T20:47:00.396Z,-0.20
2019-04-11T20:49:30.028Z,-0.10
2019-04-11T20:51:59.960Z,-0.10
2019-04-11T20:54:30.250Z,-0.10
2019-04-11T20:57:00.209Z,-0.20
2019-04-11T20:59:34.814Z,-0.20
2019-04-11T21:02:01.891Z,-0.20
2019-04-11T21:04:31.930Z,-0.30
2019-04-11T21:07:02.609Z,-0.20
2019-04-11T21:09:33.330Z,-0.20
2019-04-11T21:12:04.994Z,-0.20
2019-04-11T21:14:36.436Z,-0.20
2019-04-11T21:17:06.588Z,-0.20
2019-04-11T21:19:36.492Z,-0.30
2019-04-11T21:22:06.441Z,-0.40
2019-04-11T21:24:36.407Z,-0.50
2019-04-11T21:27:06.630Z,-0.50
2019-04-11T21:29:37.717Z,-0.40
2019-04-11T21:32:07.595Z,-0.50
2019-04-11T21:34:37.494Z,-0.50
2019-04-11T21:37:07.461Z,-0.50
2019-04-11T21:39:37.435Z,-0.50
2019-04-11T21:42:07.343Z,-0.40
2019-04-11T21:44:37.316Z,-0.40
2019-04-11T21:47:07.904Z,-0.30
2019-04-11T21:49:38.038Z,-0.30
2019-04-11T21:52:12.066Z,-0.30
2019-04-11T21:54:39.554Z,-0.30
2019-04-11T21:57:09.503Z,-0.30
2019-04-11T21:59:39.480Z,-0.30
2019-04-11T22:02:11.503Z,-0.30
2019-04-11T22:04:41.422Z,-0.40
2019-04-11T22:07:11.410Z,-0.40
2019-04-11T22:09:41.540Z,-0.40
2019-04-11T22:12:11.739Z,-0.40
2019-04-11T22:14:42.583Z,-0.40
2019-04-11T22:17:14.972Z,-0.40
2019-04-11T22:19:45.825Z,-0.40
2019-04-11T22:22:17.581Z,-0.60
2019-04-11T22:24:47.770Z,-0.60
2019-04-11T22:27:21.957Z,-0.50
2019-04-11T22:29:49.247Z,-0.50
2019-04-11T22:32:19.147Z,-0.50
2019-04-11T22:34:49.062Z,-0.70
2019-04-11T22:37:18.978Z,-0.70
2019-04-11T22:39:48.917Z,-0.70
2019-04-11T22:42:18.819Z,-0.70
2019-04-11T22:44:48.789Z,-0.70
2019-04-11T22:47:18.716Z,-0.70
2019-04-11T22:49:48.707Z,-0.70
2019-04-11T22:52:18.667Z,-0.60
2019-04-11T22:54:48.640Z,-0.70
2019-04-11T22:57:18.566Z,-0.70
2019-04-11T22:59:48.635Z,-0.70
2019-04-11T23:02:29.924Z,-0.70
2019-04-11T23:04:59.905Z,-0.80
2019-04-11T23:07:29.825Z,-0.70
2019-04-11T23:09:59.689Z,-0.60
2019-04-11T23:12:29.626Z,-0.70
2019-04-11T23:14:59.542Z,-0.70
2019-04-11T23:17:29.488Z,-0.70
2019-04-11T23:19:59.411Z,-0.60
2019-04-11T23:22:29.364Z,-0.70
2019-04-11T23:24:59.313Z,-0.80
2019-04-11T23:27:30.230Z,-0.80
2019-04-11T23:30:00.194Z,-0.70
2019-04-11T23:32:30.073Z,-0.60
2019-04-11T23:34:59.998Z,-0.70
2019-04-11T23:37:31.497Z,-0.70
2019-04-11T23:40:01.449Z,-0.70
2019-04-11T23:42:31.516Z,-0.70
2019-04-11T23:45:01.399Z,-0.70
2019-04-11T23:47:31.321Z,-0.70
2019-04-11T23:50:01.300Z,-0.70
2019-04-11T23:52:31.165Z,-0.70
2019-04-11T23:55:01.124Z,-0.70
2019-04-11T23:57:31.272Z,-0.70
